Time;durP1;ratioP1;P1;durP2;ratioP2;P2;SDS_P1;SDS_P2;PMS_P1;PMS_P2;Temp;Humidity;BMP_temperature;BMP_pressure;BME280_temperature;BME280_humidity;BME280_pressure;Samples;Min_cycle;Max_cycle;Signal;HPM_P1;HPM_P2
2024/01/22 00:00:53;;;;;;;2.83;1.13;;;;;;;-145.69;45.43;52321.59;5134614;27;20667;-82
2024/01/22 00:03:20;;;;;;;1.73;1.30;;;;;;;-145.69;45.37;52309.72;5134798;27;20220;-81
2024/01/22 00:05:46;;;;;;;2.90;1.40;;;;;;;-145.69;44.98;52347.34;5134782;27;20199;-80
2024/01/22 00:08:13;;;;;;;5.53;1.20;;;;;;;-145.69;44.66;52349.31;5134212;27;20200;-81
2024/01/22 00:10:39;;;;;;;1.47;1.10;;;;;;;-145.69;45.28;52307.75;5134200;27;20211;-82
2024/01/22 00:13:06;;;;;;;1.87;1.20;;;;;;;-145.69;44.99;52321.59;5134593;27;20205;-81
2024/01/22 00:15:32;;;;;;;1.83;1.10;;;;;;;-145.69;44.90;52297.84;5134466;27;20250;-81
2024/01/22 00:18:00;;;;;;;3.33;1.13;;;;;;;-145.69;45.12;52329.53;5134600;27;20257;-82
2024/01/22 00:20:27;;;;;;;3.07;1.33;;;;;;;-145.69;45.95;52337.44;5133706;27;20193;-80
2024/01/22 00:22:55;;;;;;;3.90;1.33;;;;;;;-145.69;46.05;52341.41;5139920;27;20651;-82
2024/01/22 00:25:22;;;;;;;1.37;0.90;;;;;;;-145.69;45.71;52315.66;5155109;27;20235;-81
2024/01/22 00:27:49;;;;;;;5.13;1.17;;;;;;;-145.69;45.88;52325.56;5155123;27;20268;-81
2024/01/22 00:30:16;;;;;;;1.83;0.90;;;;;;;-145.69;44.82;52309.72;5145631;27;20200;-81
2024/01/22 00:32:42;;;;;;;2.13;1.07;;;;;;;-145.69;44.68;52276.06;5133647;27;20206;-81
2024/01/22 00:35:10;;;;;;;2.33;1.30;;;;;;;-145.69;45.06;52287.94;5133787;27;20207;-81
2024/01/22 00:37:37;;;;;;;1.33;1.00;;;;;;;-145.69;45.42;52319.63;5133974;27;20276;-81
2024/01/22 00:40:04;;;;;;;2.27;1.17;;;;;;;-145.69;45.27;52317.66;5133473;27;20200;-81
2024/01/22 00:42:31;;;;;;;1.60;1.03;;;;;;;-145.69;46.10;52327.53;5134002;27;20196;-81
2024/01/22 00:44:57;;;;;;;2.13;1.10;;;;;;;-145.69;46.40;52317.66;5133414;27;20274;-82
2024/01/22 00:47:24;;;;;;;3.23;1.07;;;;;;;-145.69;46.46;52345.38;5133415;27;20225;-80
2024/01/22 00:49:52;;;;;;;1.47;1.00;;;;;;;-145.69;48.42;52339.44;5133318;27;20193;-82
2024/01/22 00:52:20;;;;;;;1.90;1.20;;;;;;;-145.69;49.06;52293.88;5134846;27;20201;-81
2024/01/22 00:54:46;;;;;;;1.03;0.90;;;;;;;-145.69;48.28;52311.69;5154709;27;20203;-81
2024/01/22 00:57:13;;;;;;;1.00;0.90;;;;;;;-145.69;47.78;52323.59;5143742;27;20209;-81
2024/01/22 00:59:39;;;;;;;2.30;0.97;;;;;;;-145.69;47.71;52305.75;5133872;27;20193;-82
2024/01/22 01:02:06;;;;;;;2.93;1.17;;;;;;;-145.69;46.84;52313.69;5133883;27;20201;-82
2024/01/22 01:04:37;;;;;;;1.17;1.07;;;;;;;-145.69;45.97;52280.00;5133238;28;20225;-82
2024/01/22 01:07:04;;;;;;;1.43;1.20;;;;;;;-145.69;46.34;52270.13;5133552;27;20201;-82
2024/01/22 01:09:33;;;;;;;1.27;1.00;;;;;;;-145.69;45.85;52283.97;5133427;28;20204;-81
2024/01/22 01:12:00;;;;;;;3.40;1.10;;;;;;;-145.69;45.44;52293.88;5133775;27;20208;-80
2024/01/22 01:14:27;;;;;;;2.77;1.10;;;;;;;-145.69;45.31;52266.16;5126494;28;20677;-81
2024/01/22 01:16:53;;;;;;;2.03;1.07;;;;;;;-145.69;45.37;52295.84;5133550;28;20189;-81
2024/01/22 01:19:20;;;;;;;1.63;0.93;;;;;;;-145.69;45.13;52301.81;5133570;27;20562;-81
2024/01/22 01:21:49;;;;;;;2.70;1.27;;;;;;;-145.69;44.96;52287.94;5133277;27;20279;-81
2024/01/22 01:24:15;;;;;;;1.58;0.98;;;;;;;-145.69;46.55;52295.84;5142721;27;20464;-81
2024/01/22 01:26:44;;;;;;;2.07;1.00;;;;;;;-145.69;45.92;52266.16;5133086;28;20210;-81
2024/01/22 01:29:13;;;;;;;1.50;0.93;;;;;;;-145.69;45.10;52250.31;5133722;27;20243;-80
2024/01/22 01:31:40;;;;;;;1.57;0.90;;;;;;;-145.69;46.21;52297.84;5133088;27;20204;-81
2024/01/22 01:34:06;;;;;;;1.57;1.00;;;;;;;-145.69;45.80;52287.94;5133266;27;20558;-80
2024/01/22 01:36:33;;;;;;;1.37;0.97;;;;;;;-145.69;45.13;52260.22;5133673;27;20232;-81
2024/01/22 01:38:59;;;;;;;3.17;1.13;;;;;;;-145.69;45.60;52274.06;5133267;27;20201;-81
2024/01/22 01:41:27;;;;;;;1.10;0.90;;;;;;;-145.69;46.04;52319.63;5132801;27;20715;-81
2024/01/22 01:43:54;;;;;;;2.67;1.13;;;;;;;-145.69;46.08;52307.75;5133154;28;20706;-81
2024/01/22 01:46:21;;;;;;;1.77;1.00;;;;;;;-145.69;46.74;52282.00;5133187;28;20197;-81
2024/01/22 01:48:48;;;;;;;2.17;1.10;;;;;;;-145.69;46.81;52270.13;5131745;27;20319;-81
2024/01/22 01:51:16;;;;;;;1.70;1.07;;;;;;;-145.69;47.30;52276.06;5132846;27;20193;-81
2024/01/22 01:53:47;;;;;;;1.70;1.13;;;;;;;-145.69;46.87;52309.72;5146477;27;20662;-80
2024/01/22 01:56:14;;;;;;;2.83;1.20;;;;;;;-145.69;46.92;52299.81;5135267;27;20197;-81
2024/01/22 01:58:40;;;;;;;1.23;1.00;;;;;;;-145.69;46.88;52295.84;5133047;28;20196;-80
2024/01/22 02:01:08;;;;;;;2.00;1.00;;;;;;;-145.69;45.75;52282.00;5133066;27;20288;-81
2024/01/22 02:03:34;;;;;;;1.20;1.10;;;;;;;-145.69;45.19;52287.94;5132648;27;20228;-82
2024/01/22 02:06:02;;;;;;;2.00;1.30;;;;;;;-145.69;45.16;52276.06;5133078;27;20221;-81
2024/01/22 02:08:28;;;;;;;2.20;1.10;;;;;;;-145.69;45.54;52291.91;5133196;27;20196;-83
2024/01/22 02:10:55;;;;;;;2.13;1.10;;;;;;;-145.69;44.45;52272.09;5132803;27;20646;-82
2024/01/22 02:13:21;;;;;;;1.60;1.10;;;;;;;-145.69;44.78;52278.03;5132825;27;20562;-82
2024/01/22 02:15:50;;;;;;;3.47;1.13;;;;;;;-145.69;44.14;52282.00;5133143;27;20193;-81
2024/01/22 02:18:18;;;;;;;3.53;1.30;;;;;;;-145.69;43.96;52289.91;5132624;27;20208;-81
2024/01/22 02:20:48;;;;;;;1.20;1.10;;;;;;;-145.69;43.99;52293.88;5136264;27;20543;-81
2024/01/22 02:23:15;;;;;;;3.47;1.40;;;;;;;-145.69;43.79;52285.97;5136704;27;20208;-81
2024/01/22 02:25:42;;;;;;;2.83;1.23;;;;;;;-145.69;43.91;52285.97;5136463;27;20216;-82
2024/01/22 02:28:09;;;;;;;3.10;1.70;;;;;;;-145.69;43.99;52274.06;5136212;27;20586;-82
2024/01/22 02:30:35;;;;;;;3.00;1.50;;;;;;;-145.69;44.30;52293.88;5136534;27;20193;-81
2024/01/22 02:33:05;;;;;;;3.53;1.60;;;;;;;-145.69;44.30;52321.59;5136776;27;20193;-82
2024/01/22 02:35:31;;;;;;;2.47;1.40;;;;;;;-145.69;44.88;52274.06;5136294;27;20193;-82
2024/01/22 02:37:58;;;;;;;4.17;1.53;;;;;;;-145.69;45.34;52289.91;5136311;27;20208;-82
2024/01/22 02:40:27;;;;;;;2.80;1.60;;;;;;;-145.69;44.42;52262.19;5127235;27;20647;-82
2024/01/22 02:42:54;;;;;;;2.40;1.40;;;;;;;-145.69;44.47;52323.59;5135051;27;20284;-81
2024/01/22 02:45:25;;;;;;;2.70;1.47;;;;;;;-145.69;44.58;52287.94;5135860;27;20228;-81
2024/01/22 02:47:51;;;;;;;2.37;1.30;;;;;;;-145.69;44.89;52283.97;5136025;27;20236;-81
2024/01/22 02:50:20;;;;;;;4.00;2.07;;;;;;;-145.69;44.26;52278.03;5136116;27;20554;-81
2024/01/22 02:52:48;;;;;;;3.63;1.90;;;;;;;-145.69;43.78;52280.00;5141337;27;20199;-81
2024/01/22 02:55:15;;;;;;;4.40;1.53;;;;;;;-145.69;44.49;52289.91;5136191;27;20343;-82
2024/01/22 02:57:44;;;;;;;3.70;1.70;;;;;;;-145.69;43.86;52274.06;5136188;27;20197;-81
2024/01/22 03:00:10;;;;;;;4.03;1.63;;;;;;;-145.69;43.88;52289.91;5135823;27;20188;-81
2024/01/22 03:02:38;;;;;;;5.93;1.50;;;;;;;-145.69;43.66;52285.97;5136062;27;20197;-82
2024/01/22 03:05:05;;;;;;;7.03;1.80;;;;;;;-145.69;43.73;52289.91;5135729;27;20224;-82
2024/01/22 03:07:31;;;;;;;3.87;2.23;;;;;;;-145.69;43.61;52280.00;5135301;27;20280;-81
2024/01/22 03:09:58;;;;;;;2.63;1.60;;;;;;;-145.69;43.96;52282.00;5135817;27;20215;-81
2024/01/22 03:12:24;;;;;;;3.00;1.73;;;;;;;-145.69;43.55;52278.03;5135585;27;20203;-82
2024/01/22 03:14:52;;;;;;;3.33;1.80;;;;;;;-145.69;43.95;52285.97;5135814;27;20678;-82
2024/01/22 03:17:19;;;;;;;3.07;1.60;;;;;;;-145.69;43.56;52282.00;5135089;27;20288;-82
2024/01/22 03:19:45;;;;;;;2.60;1.57;;;;;;;-145.69;42.93;52272.09;5135806;27;20208;-82
2024/01/22 03:22:15;;;;;;;2.90;1.77;;;;;;;-145.69;43.23;52266.16;5135497;27;20199;-82
2024/01/22 03:24:45;;;;;;;1.97;1.50;;;;;;;-145.69;42.79;52276.06;5156283;27;20689;-82
2024/01/22 03:27:11;;;;;;;4.90;1.97;;;;;;;-145.69;42.08;52287.94;5156062;27;20202;-82
2024/01/22 03:29:38;;;;;;;2.47;1.50;;;;;;;-145.69;42.32;52278.03;5139927;27;20200;-81
2024/01/22 03:32:06;;;;;;;2.47;1.73;;;;;;;-145.69;42.28;52262.19;5135250;27;20653;-82
2024/01/22 03:34:33;;;;;;;2.63;1.90;;;;;;;-145.69;42.31;52280.00;5134856;27;20212;-82
2024/01/22 03:37:00;;;;;;;2.33;1.60;;;;;;;-145.69;42.18;52262.19;5135341;27;20647;-81
2024/01/22 03:39:26;;;;;;;5.67;1.90;;;;;;;-145.69;42.33;52295.84;5135378;27;20276;-80
2024/01/22 03:41:53;;;;;;;2.83;1.53;;;;;;;-145.69;42.40;52274.06;5131596;27;20525;-81
2024/01/22 03:44:19;;;;;;;3.83;1.83;;;;;;;-145.69;42.18;52282.00;5134803;27;20248;-81
2024/01/22 03:46:45;;;;;;;3.37;2.00;;;;;;;-145.69;42.49;52280.00;5135113;27;20208;-81
2024/01/22 03:49:13;;;;;;;3.30;1.70;;;;;;;-145.69;42.72;52246.34;5134843;27;20232;-81
2024/01/22 03:51:40;;;;;;;1.70;1.00;;;;;;;-145.69;42.88;52283.97;5134717;27;20197;-81
2024/01/22 03:54:06;;;;;;;2.10;1.40;;;;;;;-145.69;43.17;52287.94;5151133;27;20203;-82
2024/01/22 03:56:33;;;;;;;2.00;1.60;;;;;;;-145.69;43.02;52283.97;5138901;27;20639;-81
2024/01/22 03:58:59;;;;;;;1.70;1.20;;;;;;;-145.69;43.26;52289.91;5134835;27;20200;-82
2024/01/22 04:01:26;;;;;;;4.17;1.20;;;;;;;-145.69;43.53;52293.88;5134715;27;20246;-82
2024/01/22 04:03:52;;;;;;;2.03;1.10;;;;;;;-145.69;43.97;52254.28;5134815;27;20655;-82
2024/01/22 04:06:20;;;;;;;6.50;1.20;;;;;;;-145.69;43.84;52254.28;5134031;27;20221;-82
2024/01/22 04:08:47;;;;;;;2.97;1.30;;;;;;;-145.69;43.80;52266.16;5134897;27;20193;-82
2024/01/22 04:11:13;;;;;;;4.20;1.43;;;;;;;-145.69;43.89;52262.19;5134328;27;20204;-82
2024/01/22 04:13:40;;;;;;;2.37;1.30;;;;;;;-145.69;44.91;52278.03;5131388;27;20640;-81
2024/01/22 04:16:07;;;;;;;3.90;1.47;;;;;;;-145.69;44.42;52264.16;5134072;27;20228;-83
2024/01/22 04:18:34;;;;;;;2.17;1.30;;;;;;;-145.69;44.29;52276.06;5134317;27;20286;-82
2024/01/22 04:21:00;;;;;;;3.17;1.70;;;;;;;-145.69;43.99;52272.09;5134147;27;20585;-80
2024/01/22 04:23:29;;;;;;;3.30;1.20;;;;;;;-145.69;44.35;52317.66;5145384;27;20199;-81
2024/01/22 04:25:56;;;;;;;4.87;1.63;;;;;;;-145.69;44.27;52244.38;5155043;27;20754;-82
2024/01/22 04:28:22;;;;;;;2.27;1.40;;;;;;;-145.69;44.34;52258.22;5154921;27;20199;-81
2024/01/22 04:30:48;;;;;;;2.33;1.50;;;;;;;-145.69;44.31;52260.22;5135328;27;20197;-81
2024/01/22 04:33:15;;;;;;;2.10;1.53;;;;;;;-145.69;44.30;52272.09;5134327;27;20292;-82
2024/01/22 04:35:41;;;;;;;3.43;1.40;;;;;;;-145.69;44.30;52258.22;5133979;27;20200;-82
2024/01/22 04:38:08;;;;;;;4.03;1.37;;;;;;;-145.69;44.12;52228.53;5134368;27;20204;-82
2024/01/22 04:40:36;;;;;;;2.20;1.10;;;;;;;-145.69;44.28;52272.09;5133582;27;20193;-81
2024/01/22 04:43:03;;;;;;;1.73;1.37;;;;;;;-145.69;43.75;52270.13;5112803;28;20552;-82
2024/01/22 04:45:30;;;;;;;3.40;1.80;;;;;;;-145.69;43.62;52276.06;5113428;27;20229;-82
2024/01/22 04:47:57;;;;;;;5.10;1.50;;;;;;;-145.69;43.92;52270.13;5113457;28;20229;-82
2024/01/22 04:50:23;;;;;;;1.37;1.17;;;;;;;-145.69;43.87;52262.19;5116953;27;20198;-82
2024/01/22 04:52:50;;;;;;;2.30;1.30;;;;;;;-145.69;43.61;52264.16;5138089;27;20204;-81
2024/01/22 04:55:16;;;;;;;1.20;1.03;;;;;;;-145.69;43.61;52283.97;5133596;27;20196;-82
2024/01/22 04:57:44;;;;;;;2.33;1.33;;;;;;;-145.69;43.88;52250.31;5133412;27;20196;-81
2024/01/22 05:00:11;;;;;;;1.40;1.30;;;;;;;-145.69;43.53;52266.16;5133652;27;20201;-81
2024/01/22 05:02:39;;;;;;;2.17;1.40;;;;;;;-145.69;43.05;52283.97;5133000;27;20205;-82
2024/01/22 05:05:05;;;;;;;1.87;1.67;;;;;;;-145.69;43.40;52262.19;5132802;27;20215;-82
2024/01/22 05:07:32;;;;;;;2.20;1.50;;;;;;;-145.69;43.87;52293.88;5133915;27;20667;-81
2024/01/22 05:10:02;;;;;;;5.43;1.40;;;;;;;-145.69;43.52;52270.13;5133143;27;20200;-81
2024/01/22 05:12:29;;;;;;;3.10;1.30;;;;;;;-145.69;43.72;52262.19;5133300;27;20204;-82
2024/01/22 05:14:56;;;;;;;2.17;1.37;;;;;;;-145.69;43.99;52272.09;5133801;27;20196;-82
2024/01/22 05:17:24;;;;;;;2.53;1.30;;;;;;;-145.69;44.53;52256.25;5133540;27;20217;-80
2024/01/22 05:19:52;;;;;;;5.27;1.63;;;;;;;-145.69;44.87;52246.34;5133219;27;20238;-81
2024/01/22 05:22:19;;;;;;;3.37;1.20;;;;;;;-145.69;44.55;52240.41;5135133;27;20192;-81
2024/01/22 05:24:45;;;;;;;3.37;1.40;;;;;;;-145.69;44.75;52258.22;5154442;27;20206;-82
2024/01/22 05:27:12;;;;;;;2.20;1.30;;;;;;;-145.69;44.88;52289.91;5154215;27;20203;-82
2024/01/22 05:29:38;;;;;;;2.37;1.50;;;;;;;-145.69;44.87;52282.00;5151215;27;20235;-81
2024/01/22 05:32:07;;;;;;;2.67;1.20;;;;;;;-145.69;44.53;52246.34;5133071;27;20203;-81
2024/01/22 05:34:34;;;;;;;1.93;1.37;;;;;;;-145.69;45.16;52266.16;5133573;27;20329;-81
2024/01/22 05:37:00;;;;;;;1.30;1.10;;;;;;;-145.69;44.66;52278.03;5133483;27;20617;-82
2024/01/22 05:39:27;;;;;;;3.03;1.37;;;;;;;-145.69;44.74;52268.13;5132547;28;20189;-81
2024/01/22 05:41:54;;;;;;;1.93;1.20;;;;;;;-145.69;44.83;52268.13;5133493;27;20683;-81
2024/01/22 05:44:21;;;;;;;1.80;1.27;;;;;;;-145.69;44.68;52285.97;5124336;27;20196;-81
2024/01/22 05:46:47;;;;;;;2.10;1.43;;;;;;;-145.69;45.06;52274.06;5133442;27;20265;-81
2024/01/22 05:49:15;;;;;;;4.43;1.97;;;;;;;-145.69;44.52;52264.16;5133001;27;20714;-82
2024/01/22 05:51:41;;;;;;;3.43;1.47;;;;;;;-145.69;44.83;52242.38;5133115;27;20193;-81
2024/01/22 05:54:08;;;;;;;1.57;1.07;;;;;;;-145.69;43.79;52244.38;5152151;27;20295;-81
2024/01/22 05:56:34;;;;;;;1.87;1.40;;;;;;;-145.69;43.89;52280.00;5136945;27;20193;-81
2024/01/22 05:59:01;;;;;;;2.00;1.17;;;;;;;-145.69;44.60;52282.00;5136839;27;20203;-81
2024/01/22 06:01:29;;;;;;;2.33;1.20;;;;;;;-145.69;44.24;52254.28;5137407;27;20208;-81
2024/01/22 06:03:56;;;;;;;17.30;8.00;;;;;;;-145.69;44.66;52254.28;5137256;27;20204;-82
2024/01/22 06:06:24;;;;;;;4.43;2.00;;;;;;;-145.69;44.42;52274.06;5136950;27;20229;-80
2024/01/22 06:08:51;;;;;;;1.70;1.17;;;;;;;-145.69;44.42;52266.16;5136507;27;20197;-82
2024/01/22 06:11:19;;;;;;;1.30;1.20;;;;;;;-145.69;43.24;52274.06;5137273;27;20208;-82
2024/01/22 06:13:46;;;;;;;1.03;0.80;;;;;;;-145.69;42.99;52248.34;5136817;27;20212;-81
2024/01/22 06:16:13;;;;;;;3.33;1.00;;;;;;;-145.69;42.56;52228.53;5137001;27;20199;-81
2024/01/22 06:18:41;;;;;;;1.30;0.70;;;;;;;-145.69;42.20;52283.97;5136772;27;20196;-82
2024/01/22 06:21:08;;;;;;;2.40;1.47;;;;;;;-145.69;42.13;52270.13;5136816;27;20193;-81
2024/01/22 06:23:36;;;;;;;2.50;1.40;;;;;;;-145.69;41.55;52230.50;5148600;27;20643;-82
2024/01/22 06:26:02;;;;;;;7.37;2.87;;;;;;;-145.69;41.45;52258.22;5157727;27;20228;-81
2024/01/22 06:28:31;;;;;;;5.23;1.70;;;;;;;-145.69;41.89;52262.19;5153761;27;20261;-80
2024/01/22 06:30:58;;;;;;;2.53;1.40;;;;;;;-145.69;42.02;52260.22;5136396;27;20324;-81
2024/01/22 06:33:25;;;;;;;2.03;1.00;;;;;;;-145.69;41.32;52272.09;5136548;27;20659;-81
2024/01/22 06:35:54;;;;;;;2.73;1.20;;;;;;;-145.69;40.93;52210.72;5136394;27;20254;-81
2024/01/22 06:38:20;;;;;;;1.73;1.27;;;;;;;-145.69;40.97;52270.13;5136210;27;20204;-80
2024/01/22 06:40:48;;;;;;;2.90;1.43;;;;;;;-145.69;40.92;52234.47;5136474;27;20682;-81
2024/01/22 06:43:15;;;;;;;2.00;1.40;;;;;;;-145.69;40.67;52260.22;5131082;27;20563;-81
2024/01/22 06:45:43;;;;;;;2.00;1.20;;;;;;;-145.69;40.54;52234.47;5119549;27;20267;-82
2024/01/22 06:48:09;;;;;;;1.47;0.97;;;;;;;-145.69;40.85;52214.66;5132626;27;20629;-82
2024/01/22 06:50:35;;;;;;;3.53;1.07;;;;;;;-145.69;41.18;52230.50;5135947;27;20200;-83
2024/01/22 06:53:03;;;;;;;3.23;1.60;;;;;;;-145.69;40.95;52236.44;5143672;27;20661;-82
2024/01/22 06:55:30;;;;;;;2.27;1.10;;;;;;;-145.69;41.03;52218.63;5146628;27;20205;-82
2024/01/22 06:57:58;;;;;;;2.30;1.40;;;;;;;-145.69;41.08;52256.25;5135874;27;20283;-83
2024/01/22 07:00:24;;;;;;;1.97;1.20;;;;;;;-145.69;40.61;52234.47;5136025;27;20242;-82
2024/01/22 07:02:51;;;;;;;1.97;1.40;;;;;;;-145.69;41.04;52226.53;5136488;27;20650;-82
2024/01/22 07:05:18;;;;;;;1.63;1.13;;;;;;;-145.69;40.54;52240.41;5135243;27;20197;-82
2024/01/22 07:07:44;;;;;;;1.30;1.20;;;;;;;-145.69;40.70;52280.00;5135782;27;20185;-82
2024/01/22 07:10:11;;;;;;;1.63;1.10;;;;;;;-145.69;41.04;52250.31;5136200;27;20203;-82
2024/01/22 07:12:40;;;;;;;1.30;1.00;;;;;;;-145.69;40.39;52254.28;5135789;27;20197;-82
2024/01/22 07:15:12;;;;;;;1.07;1.00;;;;;;;-145.69;40.91;52218.63;5121274;27;20226;-83
2024/01/22 07:17:39;;;;;;;1.13;0.90;;;;;;;-145.69;40.68;52210.72;5135357;27;20217;-83
2024/01/22 07:20:08;;;;;;;1.93;0.80;;;;;;;-145.69;40.52;52184.97;5135725;27;20201;-82
2024/01/22 07:22:36;;;;;;;1.23;0.87;;;;;;;-145.69;40.58;52226.53;5139266;27;20200;-82
2024/01/22 07:25:03;;;;;;;2.77;0.90;;;;;;;-145.69;40.96;52270.13;5150378;27;20203;-81
2024/01/22 07:27:29;;;;;;;3.03;1.30;;;;;;;-145.69;41.60;52206.75;5135334;27;20213;-83
2024/01/22 07:29:56;;;;;;;0.87;0.73;;;;;;;-145.69;41.23;52244.38;5135590;27;20279;-83
2024/01/22 07:32:26;;;;;;;1.97;0.80;;;;;;;-145.69;41.72;52230.50;5135865;27;20236;-83
2024/01/22 07:34:52;;;;;;;0.93;0.87;;;;;;;-145.69;41.65;52236.44;5135211;27;20223;-82
2024/01/22 07:37:19;;;;;;;1.30;0.80;;;;;;;-145.69;41.70;52242.38;5135245;27;20192;-82
2024/01/22 07:39:45;;;;;;;4.23;1.83;;;;;;;-145.69;41.74;52228.53;5135134;27;20201;-83
2024/01/22 07:42:12;;;;;;;3.00;1.00;;;;;;;-145.69;42.49;52218.63;5135259;27;20200;-83
2024/01/22 07:44:38;;;;;;;1.43;0.93;;;;;;;-145.69;43.28;52254.28;5134289;27;20201;-81
2024/01/22 07:47:05;;;;;;;3.43;1.57;;;;;;;-145.69;42.92;52230.50;5135324;27;20590;-81
2024/01/22 07:49:33;;;;;;;6.47;3.00;;;;;;;-145.69;43.06;52226.53;5134826;27;20230;-81
2024/01/22 07:52:02;;;;;;;4.50;2.40;;;;;;;-145.69;42.28;52200.81;5135235;27;20563;-82
2024/01/22 07:54:28;;;;;;;2.53;1.37;;;;;;;-145.69;43.00;52230.50;5153670;27;20287;-81
2024/01/22 07:56:55;;;;;;;1.93;1.10;;;;;;;-145.69;42.58;52204.75;5134750;27;20205;-82
2024/01/22 07:59:21;;;;;;;2.47;0.90;;;;;;;-145.69;43.53;52242.38;5134586;27;20188;-82
2024/01/22 08:01:48;;;;;;;1.10;1.00;;;;;;;-145.69;43.48;52208.72;5134664;27;20204;-81
2024/01/22 08:04:14;;;;;;;1.57;0.93;;;;;;;-145.69;44.63;52242.38;5134854;27;20643;-82
2024/01/22 08:06:42;;;;;;;1.20;1.10;;;;;;;-145.69;44.96;52230.50;5134339;27;20221;-82
2024/01/22 08:09:08;;;;;;;2.20;1.13;;;;;;;-145.69;44.64;52206.75;5135040;27;20196;-82
2024/01/22 08:11:35;;;;;;;1.27;1.00;;;;;;;-145.69;44.77;52210.72;5134255;27;20651;-81
2024/01/22 08:14:02;;;;;;;1.13;0.90;;;;;;;-145.69;44.79;52202.78;5134486;27;20257;-81
2024/01/22 08:16:28;;;;;;;0.90;0.70;;;;;;;-145.69;44.60;52222.59;5133496;27;20678;-82
2024/01/22 08:18:55;;;;;;;1.00;0.90;;;;;;;-145.69;44.53;52206.75;5134487;27;20197;-81
2024/01/22 08:21:21;;;;;;;2.67;0.77;;;;;;;-145.69;45.33;52194.88;5134759;27;20196;-82
2024/01/22 08:23:49;;;;;;;1.13;1.00;;;;;;;-145.69;45.02;52222.59;5134708;27;20635;-82
2024/01/22 08:26:15;;;;;;;3.40;1.63;;;;;;;-145.69;44.93;52214.66;5134051;27;20251;-82
2024/01/22 08:28:42;;;;;;;3.43;1.73;;;;;;;-145.69;44.28;52210.72;5134228;27;20196;-81
2024/01/22 08:31:08;;;;;;;0.90;0.90;;;;;;;-145.69;44.48;52210.72;5134233;27;20192;-82
2024/01/22 08:33:35;;;;;;;1.80;1.17;;;;;;;-145.69;44.75;52198.81;5134408;27;20197;-83
2024/01/22 08:36:01;;;;;;;0.90;0.90;;;;;;;-145.69;44.83;52202.78;5134100;27;20207;-83
2024/01/22 08:38:28;;;;;;;0.60;0.60;;;;;;;-145.69;45.82;52214.66;5134470;27;20197;-82
2024/01/22 08:40:56;;;;;;;1.33;0.90;;;;;;;-145.69;47.47;52214.66;5134114;27;20203;-83
2024/01/22 08:43:22;;;;;;;1.50;0.70;;;;;;;-145.69;48.81;52214.66;5134215;27;20197;-81
2024/01/22 08:45:49;;;;;;;0.70;0.70;;;;;;;-145.69;47.96;52200.81;5133546;27;20193;-80
2024/01/22 08:48:16;;;;;;;1.88;0.77;;;;;;;-145.69;47.86;52206.75;5126890;27;20248;-80
2024/01/22 08:50:42;;;;;;;1.95;0.55;;;;;;;-145.69;48.32;52171.09;5121731;27;20196;-82
2024/01/22 08:53:09;;;;;;;2.00;0.77;;;;;;;-145.69;47.71;52222.59;5142405;27;20204;-79
2024/01/22 08:55:37;;;;;;;0.52;0.52;;;;;;;-145.69;47.53;52250.31;5145888;27;20195;-79
2024/01/22 08:58:05;;;;;;;0.87;0.83;;;;;;;-145.69;47.55;52204.75;5133957;27;20200;-79
2024/01/22 09:00:31;;;;;;;2.10;0.75;;;;;;;-145.69;47.12;52198.81;5133092;27;20654;-79
2024/01/22 09:02:58;;;;;;;0.60;0.60;;;;;;;-145.69;47.95;52226.53;5133457;27;20195;-80
2024/01/22 09:05:24;;;;;;;0.70;0.70;;;;;;;-145.69;47.79;52212.69;5133465;27;20203;-79
2024/01/22 09:07:51;;;;;;;0.77;0.75;;;;;;;-145.69;48.62;52184.97;5133539;27;20230;-81
2024/01/22 09:10:23;;;;;;;1.67;0.82;;;;;;;-145.69;48.78;52226.53;5133868;27;20204;-81
2024/01/22 09:12:51;;;;;;;2.55;0.90;;;;;;;-145.69;48.75;52196.84;5134381;28;20212;-82
2024/01/22 09:15:22;;;;;;;0.90;0.80;;;;;;;-145.69;48.93;52157.25;5133894;27;20623;-81
2024/01/22 09:17:52;;;;;;;0.93;0.45;;;;;;;-145.69;49.30;52218.63;5133870;27;20199;-85
2024/01/22 09:20:20;;;;;;;0.50;0.50;;;;;;;-145.69;49.14;52214.66;5134185;27;20201;-81
2024/01/22 09:22:49;;;;;;;0.77;0.73;;;;;;;-145.69;48.85;52192.88;5138474;27;20203;-81
2024/01/22 09:25:16;;;;;;;1.02;0.80;;;;;;;-145.69;49.32;52186.94;5153430;27;20288;-82
2024/01/22 09:27:45;;;;;;;1.02;0.70;;;;;;;-145.69;49.10;52208.72;5133551;27;20713;-83
2024/01/22 09:30:12;;;;;;;0.70;0.70;;;;;;;-145.69;49.44;52165.16;5138081;27;20201;-81
2024/01/22 09:32:41;;;;;;;0.93;0.65;;;;;;;-145.69;49.24;52165.16;5138195;27;20205;-83
2024/01/22 09:35:17;;;;;;;1.05;0.77;;;;;;;-145.69;49.33;52171.09;5137194;27;20206;-83
2024/01/22 09:37:44;;;;;;;0.60;0.60;;;;;;;-145.69;49.80;52200.81;5137169;27;20207;-84
2024/01/22 09:40:14;;;;;;;0.88;0.70;;;;;;;-145.69;49.57;52238.44;5137754;27;20284;-82
2024/01/22 09:42:42;;;;;;;1.27;0.65;;;;;;;-145.69;49.88;52198.81;5138456;27;20236;-82
2024/01/22 09:45:13;;;;;;;2.38;0.52;;;;;;;-145.69;49.83;52173.09;5138337;27;20609;-82
2024/01/22 09:47:42;;;;;;;2.40;0.70;;;;;;;-145.69;49.23;52242.38;5136967;27;20724;-81
2024/01/22 09:50:10;;;;;;;1.52;0.68;;;;;;;-145.69;49.71;52145.34;5137903;27;20284;-81
2024/01/22 09:52:48;;;;;;;0.52;0.52;;;;;;;-145.69;49.54;52208.72;5137467;27;20196;-81
2024/01/22 09:55:20;;;;;;;1.30;0.73;;;;;;;-145.69;49.58;52173.09;5145234;27;20202;-81
2024/01/22 09:57:50;;;;;;;1.25;0.70;;;;;;;-145.69;48.69;52202.78;5137389;27;20249;-82
2024/01/22 10:00:18;;;;;;;0.68;0.60;;;;;;;-145.69;49.45;52165.16;5117128;27;20640;-81
2024/01/22 10:02:45;;;;;;;1.63;0.65;;;;;;;-145.69;48.96;52190.91;5136397;27;20192;-81
2024/01/22 10:05:13;;;;;;;1.20;0.55;;;;;;;-145.69;49.04;52220.59;5137095;27;20189;-82
2024/01/22 10:07:40;;;;;;;0.60;0.60;;;;;;;-145.69;49.91;52190.91;5142110;27;20220;-80
2024/01/22 10:10:11;;;;;;;0.70;0.70;;;;;;;-145.69;49.43;52179.03;5155853;27;20192;-80
2024/01/22 10:13:03;;;;;;;1.60;0.73;;;;;;;-145.69;48.70;52161.19;5151193;27;20245;-80
2024/01/22 10:15:39;;;;;;;1.00;0.70;;;;;;;-145.69;49.00;52188.91;5136913;27;20185;-80
2024/01/22 10:18:16;;;;;;;1.85;0.73;;;;;;;-145.69;48.52;52190.91;5127987;27;20207;-80
2024/01/22 10:20:46;;;;;;;2.13;0.80;;;;;;;-145.69;48.46;52163.19;5130005;27;20212;-81
2024/01/22 10:23:16;;;;;;;1.25;0.80;;;;;;;-145.69;48.52;52175.06;5135804;27;20232;-80
2024/01/22 10:25:43;;;;;;;1.25;0.55;;;;;;;-145.69;48.60;52186.94;5146753;27;20582;-78
2024/01/22 10:28:23;;;;;;;3.38;0.65;;;;;;;-145.69;48.36;52186.94;5157309;27;20738;-80
2024/01/22 10:31:05;;;;;;;0.55;0.55;;;;;;;-145.69;48.57;52175.06;5143432;27;20201;-80
2024/01/22 10:33:37;;;;;;;1.77;0.60;;;;;;;-145.69;49.20;52198.81;5136492;27;20232;-79
2024/01/22 10:36:15;;;;;;;2.83;1.25;;;;;;;-145.69;48.45;52179.03;5136653;27;20531;-78
2024/01/22 10:38:45;;;;;;;1.00;0.70;;;;;;;-145.69;49.05;52173.09;5136329;27;20211;-79
2024/01/22 10:41:24;;;;;;;1.52;0.70;;;;;;;-145.69;48.51;52198.81;5135155;27;20576;-79
2024/01/22 10:43:54;;;;;;;0.88;0.68;;;;;;;-145.69;48.81;52194.88;5136177;27;20603;-81
2024/01/22 10:46:24;;;;;;;0.90;0.65;;;;;;;-145.69;48.86;52167.13;5135891;27;20201;-78
2024/01/22 10:48:58;;;;;;;2.30;0.70;;;;;;;-145.69;49.18;52220.59;5135967;27;20594;-79
2024/01/22 10:51:26;;;;;;;0.50;0.50;;;;;;;-145.69;49.80;52171.09;5133064;27;20557;-77
2024/01/22 10:53:56;;;;;;;2.80;0.82;;;;;;;-145.69;49.67;52188.91;5135055;27;20287;-78
2024/01/22 10:56:24;;;;;;;1.02;0.60;;;;;;;-145.69;49.68;52200.81;5135942;27;20204;-78
2024/01/22 10:58:56;;;;;;;0.93;0.60;;;;;;;-145.69;49.66;52202.78;5135863;27;20201;-80
2024/01/22 11:01:26;;;;;;;2.47;0.90;;;;;;;-145.69;49.72;52196.84;5135729;27;20722;-80
2024/01/22 11:04:08;;;;;;;1.23;0.70;;;;;;;-145.69;49.44;52194.88;5135887;27;20224;-79
2024/01/22 11:06:42;;;;;;;0.85;0.57;;;;;;;-145.69;50.44;52167.13;5135918;27;20200;-80
2024/01/22 11:09:11;;;;;;;2.47;0.60;;;;;;;-145.69;50.59;52157.25;5136111;27;20192;-79
2024/01/22 11:11:41;;;;;;;1.10;0.57;;;;;;;-145.69;50.47;52167.13;5134917;27;20661;-80
2024/01/22 11:14:10;;;;;;;3.83;0.60;;;;;;;-145.69;50.03;52167.13;5135890;27;20196;-78
2024/01/22 11:16:38;;;;;;;0.60;0.60;;;;;;;-145.69;49.77;52175.06;5135898;27;20201;-79
2024/01/22 11:19:21;;;;;;;1.27;0.85;;;;;;;-145.69;49.55;52198.81;5135475;27;20200;-79